sensor_id;sensor_type;location;lat;lon;timestamp;pressure;altitude;pressure_sealevel;temperature;humidity
77147;BME280;66121;52.584;9.694;2023-11-18T00:00:51;101757.03;;;1.82;100.00
77147;BME280;66121;52.584;9.694;2023-11-18T00:03:16;101756.47;;;1.66;100.00
77147;BME280;66121;52.584;9.694;2023-11-18T00:05:42;101748.66;;;1.60;100.00
77147;BME280;66121;52.584;9.694;2023-11-18T00:08:07;101770.34;;;1.65;100.00
77147;BME280;66121;52.584;9.694;2023-11-18T00:10:32;101765.81;;;1.60;100.00
77147;BME280;66121;52.584;9.694;2023-11-18T00:12:58;101762.97;;;1.52;100.00
77147;BME280;66121;52.584;9.694;2023-11-18T00:15:23;101769.25;;;1.47;100.00
77147;BME280;66121;52.584;9.694;2023-11-18T00:17:48;101768.25;;;1.43;100.00
77147;BME280;66121;52.584;9.694;2023-11-18T00:20:14;101764.22;;;1.41;100.00
77147;BME280;66121;52.584;9.694;2023-11-18T00:22:41;101767.75;;;1.41;100.00
77147;BME280;66121;52.584;9.694;2023-11-18T00:25:07;101757.03;;;1.31;100.00
77147;BME280;66121;52.584;9.694;2023-11-18T00:27:34;101755.19;;;1.26;100.00
77147;BME280;66121;52.584;9.694;2023-11-18T00:30:04;101766.06;;;1.26;100.00
77147;BME280;66121;52.584;9.694;2023-11-18T00:32:31;101759.59;;;1.22;100.00
77147;BME280;66121;52.584;9.694;2023-11-18T00:34:57;101757.56;;;1.14;100.00
77147;BME280;66121;52.584;9.694;2023-11-18T00:37:22;101766.72;;;1.18;100.00
77147;BME280;66121;52.584;9.694;2023-11-18T00:39:47;101764.59;;;1.15;100.00
77147;BME280;66121;52.584;9.694;2023-11-18T00:42:13;101752.31;;;0.99;100.00
77147;BME280;66121;52.584;9.694;2023-11-18T00:44:38;101770.75;;;1.02;100.00
77147;BME280;66121;52.584;9.694;2023-11-18T00:47:03;101768.75;;;1.08;100.00
77147;BME280;66121;52.584;9.694;2023-11-18T00:49:28;101774.78;;;1.05;100.00
77147;BME280;66121;52.584;9.694;2023-11-18T00:51:55;101771.72;;;1.11;100.00
77147;BME280;66121;52.584;9.694;2023-11-18T00:54:20;101768.91;;;0.98;100.00
77147;BME280;66121;52.584;9.694;2023-11-18T00:56:45;101776.47;;;1.01;100.00
77147;BME280;66121;52.584;9.694;2023-11-18T00:59:11;101776.03;;;0.94;100.00
77147;BME280;66121;52.584;9.694;2023-11-18T01:01:36;101777.72;;;0.90;100.00
77147;BME280;66121;52.584;9.694;2023-11-18T01:04:02;101791.59;;;0.88;100.00
77147;BME280;66121;52.584;9.694;2023-11-18T01:06:27;101790.63;;;0.79;100.00
77147;BME280;66121;52.584;9.694;2023-11-18T01:08:53;101797.66;;;0.80;100.00
77147;BME280;66121;52.584;9.694;2023-11-18T01:11:19;101797.38;;;0.82;100.00
77147;BME280;66121;52.584;9.694;2023-11-18T01:13:50;101809.06;;;0.82;100.00
77147;BME280;66121;52.584;9.694;2023-11-18T01:16:16;101822.34;;;0.84;100.00
77147;BME280;66121;52.584;9.694;2023-11-18T01:18:42;101819.44;;;0.75;100.00
77147;BME280;66121;52.584;9.694;2023-11-18T01:21:07;101818.13;;;0.73;100.00
77147;BME280;66121;52.584;9.694;2023-11-18T01:23:36;101836.81;;;0.79;100.00
77147;BME280;66121;52.584;9.694;2023-11-18T01:26:03;101835.13;;;0.83;100.00
77147;BME280;66121;52.584;9.694;2023-11-18T01:28:33;101836.50;;;0.81;100.00
77147;BME280;66121;52.584;9.694;2023-11-18T01:31:03;101841.63;;;0.87;100.00
77147;BME280;66121;52.584;9.694;2023-11-18T01:33:29;101847.44;;;0.99;100.00
77147;BME280;66121;52.584;9.694;2023-11-18T01:35:55;101851.63;;;1.10;100.00
77147;BME280;66121;52.584;9.694;2023-11-18T01:38:20;101847.00;;;1.11;100.00
77147;BME280;66121;52.584;9.694;2023-11-18T01:40:45;101858.19;;;1.28;100.00
77147;BME280;66121;52.584;9.694;2023-11-18T01:43:11;101850.41;;;1.40;100.00
77147;BME280;66121;52.584;9.694;2023-11-18T01:45:39;101846.03;;;1.44;100.00
77147;BME280;66121;52.584;9.694;2023-11-18T01:48:06;101852.56;;;1.43;100.00
77147;BME280;66121;52.584;9.694;2023-11-18T01:50:34;101848.44;;;1.46;100.00
77147;BME280;66121;52.584;9.694;2023-11-18T01:53:00;101840.72;;;1.34;100.00
77147;BME280;66121;52.584;9.694;2023-11-18T01:55:26;101849.97;;;1.33;100.00
77147;BME280;66121;52.584;9.694;2023-11-18T01:57:51;101853.81;;;1.32;100.00
77147;BME280;66121;52.584;9.694;2023-11-18T02:00:17;101845.78;;;1.22;100.00
77147;BME280;66121;52.584;9.694;2023-11-18T02:02:43;101864.16;;;1.30;100.00
77147;BME280;66121;52.584;9.694;2023-11-18T02:05:09;101873.22;;;1.44;100.00
77147;BME280;66121;52.584;9.694;2023-11-18T02:07:37;101865.69;;;1.36;100.00
77147;BME280;66121;52.584;9.694;2023-11-18T02:10:04;101877.31;;;1.42;100.00
77147;BME280;66121;52.584;9.694;2023-11-18T02:12:44;101880.19;;;1.50;100.00
77147;BME280;66121;52.584;9.694;2023-11-18T02:15:14;101892.81;;;1.60;100.00
77147;BME280;66121;52.584;9.694;2023-11-18T02:17:40;101894.22;;;1.57;100.00
77147;BME280;66121;52.584;9.694;2023-11-18T02:20:08;101892.97;;;1.50;100.00
77147;BME280;66121;52.584;9.694;2023-11-18T02:22:43;101890.66;;;1.62;100.00
77147;BME280;66121;52.584;9.694;2023-11-18T02:25:09;101884.25;;;1.71;100.00
77147;BME280;66121;52.584;9.694;2023-11-18T02:27:37;101895.63;;;1.73;100.00
77147;BME280;66121;52.584;9.694;2023-11-18T02:30:02;101911.50;;;1.85;100.00
77147;BME280;66121;52.584;9.694;2023-11-18T02:32:54;101914.47;;;1.88;100.00
77147;BME280;66121;52.584;9.694;2023-11-18T02:35:28;101910.28;;;1.96;100.00
77147;BME280;66121;52.584;9.694;2023-11-18T02:37:55;101904.16;;;1.85;100.00
77147;BME280;66121;52.584;9.694;2023-11-18T02:40:47;101907.47;;;2.01;100.00
77147;BME280;66121;52.584;9.694;2023-11-18T02:43:18;101910.47;;;2.00;100.00
77147;BME280;66121;52.584;9.694;2023-11-18T02:45:44;101902.59;;;1.98;100.00
77147;BME280;66121;52.584;9.694;2023-11-18T02:48:12;101903.13;;;2.00;100.00
77147;BME280;66121;52.584;9.694;2023-11-18T02:50:37;101900.97;;;1.97;100.00
77147;BME280;66121;52.584;9.694;2023-11-18T02:53:03;101902.53;;;2.03;100.00
77147;BME280;66121;52.584;9.694;2023-11-18T02:55:28;101908.47;;;2.05;100.00
77147;BME280;66121;52.584;9.694;2023-11-18T02:57:54;101889.22;;;2.02;100.00
77147;BME280;66121;52.584;9.694;2023-11-18T03:00:19;101892.63;;;1.93;100.00
77147;BME280;66121;52.584;9.694;2023-11-18T03:02:48;101889.75;;;1.85;100.00
77147;BME280;66121;52.584;9.694;2023-11-18T03:05:15;101889.66;;;1.90;100.00
77147;BME280;66121;52.584;9.694;2023-11-18T03:07:44;101887.16;;;1.93;100.00
77147;BME280;66121;52.584;9.694;2023-11-18T03:10:12;101882.53;;;1.94;100.00
77147;BME280;66121;52.584;9.694;2023-11-18T03:12:49;101887.84;;;1.85;100.00
77147;BME280;66121;52.584;9.694;2023-11-18T03:15:15;101881.16;;;1.78;100.00
77147;BME280;66121;52.584;9.694;2023-11-18T03:17:45;101895.34;;;1.75;100.00
77147;BME280;66121;52.584;9.694;2023-11-18T03:20:11;101889.44;;;1.68;100.00
77147;BME280;66121;52.584;9.694;2023-11-18T03:22:39;101885.47;;;1.60;100.00
77147;BME280;66121;52.584;9.694;2023-11-18T03:25:05;101907.41;;;1.69;100.00
77147;BME280;66121;52.584;9.694;2023-11-18T03:27:31;101868.22;;;1.51;100.00
77147;BME280;66121;52.584;9.694;2023-11-18T03:29:56;101911.38;;;1.76;100.00
77147;BME280;66121;52.584;9.694;2023-11-18T03:32:21;101910.19;;;1.82;100.00
77147;BME280;66121;52.584;9.694;2023-11-18T03:34:46;101909.97;;;1.79;100.00
77147;BME280;66121;52.584;9.694;2023-11-18T03:37:12;101927.09;;;1.98;100.00
77147;BME280;66121;52.584;9.694;2023-11-18T03:39:37;101935.56;;;2.15;100.00
77147;BME280;66121;52.584;9.694;2023-11-18T03:42:03;101938.41;;;2.24;100.00
77147;BME280;66121;52.584;9.694;2023-11-18T03:44:28;101941.88;;;2.29;100.00
77147;BME280;66121;52.584;9.694;2023-11-18T03:46:54;101946.72;;;2.32;100.00
77147;BME280;66121;52.584;9.694;2023-11-18T03:49:20;101951.88;;;2.34;100.00
77147;BME280;66121;52.584;9.694;2023-11-18T03:51:46;101936.34;;;2.34;100.00
77147;BME280;66121;52.584;9.694;2023-11-18T03:54:11;101949.25;;;2.42;100.00
77147;BME280;66121;52.584;9.694;2023-11-18T03:56:37;101953.72;;;2.52;100.00
77147;BME280;66121;52.584;9.694;2023-11-18T03:59:03;101953.56;;;2.62;100.00
77147;BME280;66121;52.584;9.694;2023-11-18T04:01:29;101951.56;;;2.68;100.00
77147;BME280;66121;52.584;9.694;2023-11-18T04:03:55;101957.50;;;2.70;100.00
77147;BME280;66121;52.584;9.694;2023-11-18T04:06:21;101945.28;;;2.67;100.00
77147;BME280;66121;52.584;9.694;2023-11-18T04:08:47;101962.97;;;2.70;100.00
77147;BME280;66121;52.584;9.694;2023-11-18T04:11:14;101968.88;;;2.77;100.00
77147;BME280;66121;52.584;9.694;2023-11-18T04:13:40;101956.75;;;2.83;100.00
77147;BME280;66121;52.584;9.694;2023-11-18T04:16:12;101973.22;;;2.91;100.00
77147;BME280;66121;52.584;9.694;2023-11-18T04:18:42;101968.16;;;2.85;100.00
77147;BME280;66121;52.584;9.694;2023-11-18T04:21:08;101971.78;;;2.80;100.00
77147;BME280;66121;52.584;9.694;2023-11-18T04:23:36;101967.44;;;2.79;100.00
77147;BME280;66121;52.584;9.694;2023-11-18T04:26:03;101971.59;;;2.77;100.00
77147;BME280;66121;52.584;9.694;2023-11-18T04:28:28;101973.50;;;2.76;100.00
77147;BME280;66121;52.584;9.694;2023-11-18T04:30:54;101973.88;;;2.70;100.00
77147;BME280;66121;52.584;9.694;2023-11-18T04:33:20;101974.69;;;2.70;100.00
77147;BME280;66121;52.584;9.694;2023-11-18T04:35:48;101971.69;;;2.72;100.00
77147;BME280;66121;52.584;9.694;2023-11-18T04:38:13;101979.66;;;2.82;100.00
77147;BME280;66121;52.584;9.694;2023-11-18T04:40:39;101974.19;;;2.82;100.00
77147;BME280;66121;52.584;9.694;2023-11-18T04:43:06;101970.69;;;2.81;100.00
77147;BME280;66121;52.584;9.694;2023-11-18T04:45:31;101974.00;;;2.92;100.00
77147;BME280;66121;52.584;9.694;2023-11-18T04:47:57;101973.00;;;2.88;100.00
77147;BME280;66121;52.584;9.694;2023-11-18T04:50:22;101967.25;;;2.89;100.00
77147;BME280;66121;52.584;9.694;2023-11-18T04:52:47;101962.41;;;2.86;100.00
77147;BME280;66121;52.584;9.694;2023-11-18T04:55:13;101997.88;;;3.00;100.00
77147;BME280;66121;52.584;9.694;2023-11-18T04:57:38;101991.09;;;2.97;100.00
77147;BME280;66121;52.584;9.694;2023-11-18T05:00:05;102002.41;;;3.04;100.00
77147;BME280;66121;52.584;9.694;2023-11-18T05:02:39;101995.34;;;3.03;100.00
77147;BME280;66121;52.584;9.694;2023-11-18T05:05:05;101984.63;;;3.07;100.00
77147;BME280;66121;52.584;9.694;2023-11-18T05:07:31;101994.94;;;3.10;100.00
77147;BME280;66121;52.584;9.694;2023-11-18T05:09:57;101997.19;;;3.08;100.00
77147;BME280;66121;52.584;9.694;2023-11-18T05:12:22;101999.19;;;3.02;100.00
77147;BME280;66121;52.584;9.694;2023-11-18T05:14:47;102002.22;;;3.01;100.00
77147;BME280;66121;52.584;9.694;2023-11-18T05:17:15;101993.00;;;2.97;100.00
77147;BME280;66121;52.584;9.694;2023-11-18T05:19:40;102003.53;;;3.03;100.00
77147;BME280;66121;52.584;9.694;2023-11-18T05:22:06;102006.00;;;3.18;100.00
77147;BME280;66121;52.584;9.694;2023-11-18T05:24:31;102007.78;;;3.09;100.00
77147;BME280;66121;52.584;9.694;2023-11-18T05:26:57;101996.59;;;3.11;100.00
77147;BME280;66121;52.584;9.694;2023-11-18T05:29:30;102014.25;;;3.13;100.00
77147;BME280;66121;52.584;9.694;2023-11-18T05:31:55;102011.63;;;3.08;100.00
77147;BME280;66121;52.584;9.694;2023-11-18T05:34:21;102004.53;;;3.07;100.00
77147;BME280;66121;52.584;9.694;2023-11-18T05:36:47;101979.28;;;3.02;100.00
77147;BME280;66121;52.584;9.694;2023-11-18T05:39:14;101999.22;;;3.16;100.00
77147;BME280;66121;52.584;9.694;2023-11-18T05:41:40;101999.22;;;3.16;100.00
77147;BME280;66121;52.584;9.694;2023-11-18T05:44:06;101990.53;;;3.14;100.00
77147;BME280;66121;52.584;9.694;2023-11-18T05:46:34;101998.63;;;3.19;100.00
77147;BME280;66121;52.584;9.694;2023-11-18T05:49:03;102002.25;;;3.28;100.00
77147;BME280;66121;52.584;9.694;2023-11-18T05:51:33;102008.31;;;3.25;100.00
77147;BME280;66121;52.584;9.694;2023-11-18T05:53:58;102016.41;;;3.30;100.00
77147;BME280;66121;52.584;9.694;2023-11-18T05:56:23;102016.28;;;3.35;100.00
77147;BME280;66121;52.584;9.694;2023-11-18T05:58:50;102010.31;;;3.19;100.00
77147;BME280;66121;52.584;9.694;2023-11-18T06:01:15;102021.75;;;3.21;100.00
77147;BME280;66121;52.584;9.694;2023-11-18T06:03:42;102022.16;;;3.29;100.00
77147;BME280;66121;52.584;9.694;2023-11-18T06:06:09;102018.72;;;3.23;100.00
77147;BME280;66121;52.584;9.694;2023-11-18T06:08:38;102029.31;;;3.24;100.00
77147;BME280;66121;52.584;9.694;2023-11-18T06:11:06;102008.63;;;3.23;100.00
77147;BME280;66121;52.584;9.694;2023-11-18T06:13:59;102025.78;;;3.24;100.00
77147;BME280;66121;52.584;9.694;2023-11-18T06:16:24;102028.22;;;3.25;100.00
77147;BME280;66121;52.584;9.694;2023-11-18T06:18:52;102025.66;;;3.29;100.00
77147;BME280;66121;52.584;9.694;2023-11-18T06:21:20;102029.03;;;3.26;100.00
77147;BME280;66121;52.584;9.694;2023-11-18T06:23:46;102026.50;;;3.30;100.00
77147;BME280;66121;52.584;9.694;2023-11-18T06:26:13;102042.75;;;3.35;100.00
77147;BME280;66121;52.584;9.694;2023-11-18T06:28:40;102044.28;;;3.41;100.00
77147;BME280;66121;52.584;9.694;2023-11-18T06:31:06;102048.84;;;3.45;100.00
77147;BME280;66121;52.584;9.694;2023-11-18T06:33:44;102061.47;;;3.41;100.00
77147;BME280;66121;52.584;9.694;2023-11-18T06:36:16;102065.31;;;3.40;100.00
77147;BME280;66121;52.584;9.694;2023-11-18T06:38:42;102073.72;;;3.44;100.00
77147;BME280;66121;52.584;9.694;2023-11-18T06:41:11;102090.00;;;3.49;100.00
77147;BME280;66121;52.584;9.694;2023-11-18T06:43:40;102069.94;;;3.40;100.00
77147;BME280;66121;52.584;9.694;2023-11-18T06:46:30;102094.03;;;3.51;100.00
77147;BME280;66121;52.584;9.694;2023-11-18T06:49:00;102076.13;;;3.45;100.00
77147;BME280;66121;52.584;9.694;2023-11-18T06:51:33;102070.16;;;3.43;100.00
77147;BME280;66121;52.584;9.694;2023-11-18T06:54:04;102068.03;;;3.40;100.00
77147;BME280;66121;52.584;9.694;2023-11-18T06:56:34;102075.41;;;3.40;100.00
77147;BME280;66121;52.584;9.694;2023-11-18T06:59:00;102083.50;;;3.45;100.00
77147;BME280;66121;52.584;9.694;2023-11-18T07:01:26;102083.72;;;3.48;100.00
77147;BME280;66121;52.584;9.694;2023-11-18T07:03:51;102087.53;;;3.47;100.00
77147;BME280;66121;52.584;9.694;2023-11-18T07:06:19;102078.44;;;3.38;100.00
77147;BME280;66121;52.584;9.694;2023-11-18T07:08:48;102079.63;;;3.32;100.00
77147;BME280;66121;52.584;9.694;2023-11-18T07:11:15;102085.00;;;3.37;100.00
77147;BME280;66121;52.584;9.694;2023-11-18T07:13:40;102077.41;;;3.34;100.00
77147;BME280;66121;52.584;9.694;2023-11-18T07:16:07;102085.69;;;3.29;100.00
77147;BME280;66121;52.584;9.694;2023-11-18T07:18:34;102075.09;;;3.28;100.00
77147;BME280;66121;52.584;9.694;2023-11-18T07:20:59;102073.59;;;3.35;100.00
77147;BME280;66121;52.584;9.694;2023-11-18T07:23:25;102075.13;;;3.41;100.00
77147;BME280;66121;52.584;9.694;2023-11-18T07:25:50;102064.72;;;3.57;100.00
77147;BME280;66121;52.584;9.694;2023-11-18T07:28:15;102059.44;;;3.47;100.00
77147;BME280;66121;52.584;9.694;2023-11-18T07:30:43;102040.56;;;3.50;100.00
77147;BME280;66121;52.584;9.694;2023-11-18T07:33:16;102055.09;;;3.59;100.00
77147;BME280;66121;52.584;9.694;2023-11-18T07:35:42;102038.25;;;3.44;100.00
77147;BME280;66121;52.584;9.694;2023-11-18T07:38:08;102042.97;;;3.52;100.00
77147;BME280;66121;52.584;9.694;2023-11-18T07:40:33;102025.91;;;3.33;100.00
77147;BME280;66121;52.584;9.694;2023-11-18T07:42:59;102038.34;;;3.39;100.00
77147;BME280;66121;52.584;9.694;2023-11-18T07:45:27;102033.56;;;3.44;100.00
77147;BME280;66121;52.584;9.694;2023-11-18T07:47:54;102020.44;;;3.33;100.00
77147;BME280;66121;52.584;9.694;2023-11-18T07:50:20;102020.84;;;3.53;100.00
77147;BME280;66121;52.584;9.694;2023-11-18T07:52:49;102026.41;;;3.35;100.00
77147;BME280;66121;52.584;9.694;2023-11-18T07:55:15;102030.06;;;3.44;100.00
77147;BME280;66121;52.584;9.694;2023-11-18T07:57:41;102026.69;;;3.47;100.00
77147;BME280;66121;52.584;9.694;2023-11-18T08:00:07;102025.47;;;3.39;100.00
77147;BME280;66121;52.584;9.694;2023-11-18T08:02:36;102017.91;;;3.50;100.00
77147;BME280;66121;52.584;9.694;2023-11-18T08:05:03;102002.56;;;3.40;100.00
77147;BME280;66121;52.584;9.694;2023-11-18T08:07:28;102021.69;;;3.54;100.00
77147;BME280;66121;52.584;9.694;2023-11-18T08:09:54;102017.53;;;3.56;100.00
77147;BME280;66121;52.584;9.694;2023-11-18T08:12:19;101997.50;;;3.61;100.00
77147;BME280;66121;52.584;9.694;2023-11-18T08:14:45;102002.25;;;3.69;100.00
77147;BME280;66121;52.584;9.694;2023-11-18T08:17:11;101997.19;;;3.76;100.00
77147;BME280;66121;52.584;9.694;2023-11-18T08:19:37;101997.75;;;3.86;100.00
77147;BME280;66121;52.584;9.694;2023-11-18T08:22:03;101984.00;;;3.91;100.00
77147;BME280;66121;52.584;9.694;2023-11-18T08:24:29;101973.50;;;3.99;100.00
77147;BME280;66121;52.584;9.694;2023-11-18T08:26:54;101965.97;;;4.04;100.00
77147;BME280;66121;52.584;9.694;2023-11-18T08:29:20;101955.16;;;3.99;100.00
77147;BME280;66121;52.584;9.694;2023-11-18T08:31:46;101947.88;;;4.08;100.00
77147;BME280;66121;52.584;9.694;2023-11-18T08:34:11;101951.78;;;4.16;100.00
77147;BME280;66121;52.584;9.694;2023-11-18T08:36:37;101958.44;;;4.23;100.00
77147;BME280;66121;52.584;9.694;2023-11-18T08:39:02;101951.09;;;4.32;100.00
77147;BME280;66121;52.584;9.694;2023-11-18T08:41:28;101952.91;;;4.37;100.00
77147;BME280;66121;52.584;9.694;2023-11-18T08:43:53;101958.44;;;4.45;100.00
77147;BME280;66121;52.584;9.694;2023-11-18T08:46:18;101968.25;;;4.46;100.00
77147;BME280;66121;52.584;9.694;2023-11-18T08:48:44;101957.13;;;4.43;100.00
77147;BME280;66121;52.584;9.694;2023-11-18T08:51:09;101974.72;;;4.50;100.00
77147;BME280;66121;52.584;9.694;2023-11-18T08:53:35;101915.25;;;4.12;100.00
77147;BME280;66121;52.584;9.694;2023-11-18T08:56:09;101965.69;;;4.50;100.00
77147;BME280;66121;52.584;9.694;2023-11-18T08:58:43;101979.31;;;4.64;100.00
77147;BME280;66121;52.584;9.694;2023-11-18T09:01:10;101976.50;;;4.77;100.00
77147;BME280;66121;52.584;9.694;2023-11-18T09:03:39;101983.75;;;4.82;100.00
77147;BME280;66121;52.584;9.694;2023-11-18T09:06:10;101968.09;;;4.96;100.00
77147;BME280;66121;52.584;9.694;2023-11-18T09:08:51;101964.88;;;5.02;100.00
77147;BME280;66121;52.584;9.694;2023-11-18T09:11:21;101943.00;;;5.02;100.00
77147;BME280;66121;52.584;9.694;2023-11-18T09:13:48;101934.13;;;4.97;100.00
77147;BME280;66121;52.584;9.694;2023-11-18T09:16:15;101930.44;;;5.01;100.00
77147;BME280;66121;52.584;9.694;2023-11-18T09:18:42;101927.47;;;5.20;100.00
77147;BME280;66121;52.584;9.694;2023-11-18T09:21:11;101922.25;;;5.49;100.00
77147;BME280;66121;52.584;9.694;2023-11-18T09:23:45;101906.00;;;5.78;100.00
77147;BME280;66121;52.584;9.694;2023-11-18T09:26:13;101898.31;;;5.89;100.00
77147;BME280;66121;52.584;9.694;2023-11-18T09:28:40;101900.25;;;5.97;100.00
77147;BME280;66121;52.584;9.694;2023-11-18T09:31:06;101896.06;;;5.91;100.00
77147;BME280;66121;52.584;9.694;2023-11-18T09:33:36;101864.97;;;5.87;100.00
77147;BME280;66121;52.584;9.694;2023-11-18T09:36:08;101874.00;;;5.88;100.00
77147;BME280;66121;52.584;9.694;2023-11-18T09:38:38;101871.91;;;5.84;100.00
77147;BME280;66121;52.584;9.694;2023-11-18T09:41:08;101859.16;;;5.80;100.00
77147;BME280;66121;52.584;9.694;2023-11-18T09:43:37;101860.75;;;5.81;100.00
77147;BME280;66121;52.584;9.694;2023-11-18T09:46:11;101859.94;;;5.72;100.00
77147;BME280;66121;52.584;9.694;2023-11-18T09:48:42;101865.47;;;5.98;100.00
77147;BME280;66121;52.584;9.694;2023-11-18T09:51:08;101867.97;;;6.28;100.00
77147;BME280;66121;52.584;9.694;2023-11-18T09:53:37;101877.38;;;6.74;100.00
77147;BME280;66121;52.584;9.694;2023-11-18T09:56:10;101876.63;;;7.32;100.00
77147;BME280;66121;52.584;9.694;2023-11-18T09:58:57;101863.13;;;7.68;100.00
77147;BME280;66121;52.584;9.694;2023-11-18T10:01:28;101864.44;;;8.03;100.00
77147;BME280;66121;52.584;9.694;2023-11-18T10:03:58;101844.88;;;8.05;100.00
77147;BME280;66121;52.584;9.694;2023-11-18T10:06:23;101833.03;;;8.25;100.00
77147;BME280;66121;52.584;9.694;2023-11-18T10:08:52;101826.75;;;8.24;99.85
77147;BME280;66121;52.584;9.694;2023-11-18T10:11:18;101822.81;;;8.70;98.07
77147;BME280;66121;52.584;9.694;2023-11-18T10:13:48;101798.06;;;8.58;96.41
77147;BME280;66121;52.584;9.694;2023-11-18T10:16:14;101813.28;;;8.56;95.57
77147;BME280;66121;52.584;9.694;2023-11-18T10:18:39;101811.69;;;8.43;94.69
77147;BME280;66121;52.584;9.694;2023-11-18T10:21:14;101793.13;;;8.07;94.22
77147;BME280;66121;52.584;9.694;2023-11-18T10:23:59;101787.78;;;8.22;94.71
77147;BME280;66121;52.584;9.694;2023-11-18T10:26:27;101760.00;;;8.03;94.92
77147;BME280;66121;52.584;9.694;2023-11-18T10:28:53;101759.69;;;8.17;94.99
77147;BME280;66121;52.584;9.694;2023-11-18T10:31:20;101737.25;;;8.15;95.00
77147;BME280;66121;52.584;9.694;2023-11-18T10:33:45;101726.56;;;8.01;93.40
77147;BME280;66121;52.584;9.694;2023-11-18T10:36:22;101732.88;;;8.02;92.77
77147;BME280;66121;52.584;9.694;2023-11-18T10:38:50;101722.69;;;8.02;93.40
77147;BME280;66121;52.584;9.694;2023-11-18T10:41:18;101708.66;;;7.83;93.42
77147;BME280;66121;52.584;9.694;2023-11-18T10:43:43;101698.81;;;7.49;93.85
77147;BME280;66121;52.584;9.694;2023-11-18T10:46:11;101712.13;;;7.59;94.93
77147;BME280;66121;52.584;9.694;2023-11-18T10:48:49;101695.63;;;7.47;96.13
77147;BME280;66121;52.584;9.694;2023-11-18T10:51:16;101684.44;;;7.32;96.45
77147;BME280;66121;52.584;9.694;2023-11-18T10:53:46;101680.50;;;7.21;97.12
77147;BME280;66121;52.584;9.694;2023-11-18T10:56:26;101687.44;;;7.39;97.90
77147;BME280;66121;52.584;9.694;2023-11-18T10:58:53;101680.22;;;7.34;97.62
77147;BME280;66121;52.584;9.694;2023-11-18T11:01:39;101668.94;;;7.15;97.92
77147;BME280;66121;52.584;9.694;2023-11-18T11:04:08;101670.88;;;7.14;97.79
77147;BME280;66121;52.584;9.694;2023-11-18T11:06:36;101667.25;;;7.23;97.49
77147;BME280;66121;52.584;9.694;2023-11-18T11:09:07;101651.06;;;7.30;96.71
77147;BME280;66121;52.584;9.694;2023-11-18T11:11:46;101630.44;;;7.24;97.02
77147;BME280;66121;52.584;9.694;2023-11-18T11:14:14;101643.06;;;7.37;96.12
77147;BME280;66121;52.584;9.694;2023-11-18T11:16:45;101624.31;;;7.39;95.62
77147;BME280;66121;52.584;9.694;2023-11-18T11:19:18;101609.63;;;7.23;93.88
77147;BME280;66121;52.584;9.694;2023-11-18T11:22:03;101602.31;;;7.27;93.19
77147;BME280;66121;52.584;9.694;2023-11-18T11:24:40;101591.25;;;7.35;92.13
77147;BME280;66121;52.584;9.694;2023-11-18T11:27:22;101579.78;;;7.33;91.67
77147;BME280;66121;52.584;9.694;2023-11-18T11:30:02;101570.66;;;7.41;90.25
77147;BME280;66121;52.584;9.694;2023-11-18T11:32:42;101578.16;;;7.77;89.71
77147;BME280;66121;52.584;9.694;2023-11-18T11:35:22;101560.19;;;7.79;88.02
77147;BME280;66121;52.584;9.694;2023-11-18T11:37:48;101559.28;;;7.88;88.61
77147;BME280;66121;52.584;9.694;2023-11-18T11:40:15;101569.56;;;7.91;88.32
77147;BME280;66121;52.584;9.694;2023-11-18T11:42:48;101559.25;;;7.75;88.13
77147;BME280;66121;52.584;9.694;2023-11-18T11:45:21;101540.38;;;7.50;88.41
77147;BME280;66121;52.584;9.694;2023-11-18T11:47:48;101546.53;;;7.59;89.03
77147;BME280;66121;52.584;9.694;2023-11-18T11:50:25;101535.63;;;7.38;88.44
77147;BME280;66121;52.584;9.694;2023-11-18T11:53:05;101526.41;;;7.43;89.13
77147;BME280;66121;52.584;9.694;2023-11-18T11:55:47;101506.91;;;7.24;89.78
77147;BME280;66121;52.584;9.694;2023-11-18T11:58:29;101507.84;;;7.28;89.49
77147;BME280;66121;52.584;9.694;2023-11-18T12:03:48;101470.91;;;7.25;90.07
77147;BME280;66121;52.584;9.694;2023-11-18T12:06:21;101471.34;;;7.27;89.74
77147;BME280;66121;52.584;9.694;2023-11-18T12:08:51;101454.16;;;7.06;88.42
77147;BME280;66121;52.584;9.694;2023-11-18T12:11:17;101465.03;;;7.02;89.14
77147;BME280;66121;52.584;9.694;2023-11-18T12:14:00;101453.91;;;6.99;89.24
77147;BME280;66121;52.584;9.694;2023-11-18T12:17:07;101439.06;;;7.00;88.75
77147;BME280;66121;52.584;9.694;2023-11-18T12:19:37;101431.53;;;6.97;88.42
77147;BME280;66121;52.584;9.694;2023-11-18T12:33:05;101426.84;;;6.97;88.54
77147;BME280;66121;52.584;9.694;2023-11-18T12:41:35;101421.44;;;7.01;90.96
77147;BME280;66121;52.584;9.694;2023-11-18T12:47:03;101415.06;;;6.97;90.29
77147;BME280;66121;52.584;9.694;2023-11-18T12:49:40;101386.44;;;6.86;90.28
77147;BME280;66121;52.584;9.694;2023-11-18T12:52:09;101390.81;;;6.87;91.05
77147;BME280;66121;52.584;9.694;2023-11-18T12:54:35;101399.25;;;6.82;90.45
77147;BME280;66121;52.584;9.694;2023-11-18T12:57:08;101383.59;;;6.82;90.94
77147;BME280;66121;52.584;9.694;2023-11-18T12:59:35;101383.16;;;6.80;91.25
77147;BME280;66121;52.584;9.694;2023-11-18T13:02:01;101384.97;;;6.88;90.75
77147;BME280;66121;52.584;9.694;2023-11-18T13:04:30;101371.38;;;6.80;90.11
77147;BME280;66121;52.584;9.694;2023-11-18T13:06:56;101373.97;;;6.76;91.22
77147;BME280;66121;52.584;9.694;2023-11-18T13:09:23;101371.34;;;6.68;90.78
77147;BME280;66121;52.584;9.694;2023-11-18T13:11:58;101369.81;;;6.58;91.13
77147;BME280;66121;52.584;9.694;2023-11-18T13:14:27;101362.88;;;6.61;91.61
77147;BME280;66121;52.584;9.694;2023-11-18T13:16:56;101363.78;;;6.53;91.67
77147;BME280;66121;52.584;9.694;2023-11-18T13:19:27;101373.28;;;6.55;92.17
77147;BME280;66121;52.584;9.694;2023-11-18T13:22:02;101373.81;;;6.48;92.51